Finley, Washington
Current Conditions -  °F | °C
As of 10:53 PM on Sunday 23 Nov 2014 (Local Time) from KPSC Reporting Station
Clear Clear  
Wind Chill:   Ceiling: Unl
Heat Index:   Visibility: 10mi
Dew Point:   Wind: 7mph
Humidity: 79%   Direction: 250°WSW
Pressure: 30.27"   Gusts: NA
Location:  46.2117°N, 119.173°W
Report Text: KPSC 240653Z AUTO 25006KT 10SM CLR 04/01 A3027 RMK AO2 SLP252 T00390006
Loading
Personal Weather Stations






























Interactive Weather Map New forecast layout! Learn more

10-Day Weather Forecast

Advertisements
Track Severe Weather on mobile